createdAt,value
2018-04-25T00:00:35.039Z,97.10
2018-04-25T00:03:04.459Z,97.10
2018-04-25T00:05:33.982Z,97.30
2018-04-25T00:08:04.409Z,97.00
2018-04-25T00:10:34.475Z,96.90
2018-04-25T00:13:04.403Z,97.10
2018-04-25T00:15:34.126Z,97.10
2018-04-25T00:18:04.182Z,97.20
2018-04-25T00:20:33.735Z,97.20
2018-04-25T00:23:03.113Z,97.10
2018-04-25T00:25:32.641Z,97.10
2018-04-25T00:28:02.157Z,97.10
2018-04-25T00:30:31.534Z,96.90
2018-04-25T00:33:00.845Z,97.00
2018-04-25T00:35:30.149Z,97.30
2018-04-25T00:37:59.443Z,97.10
2018-04-25T00:40:28.737Z,97.10
2018-04-25T00:42:58.169Z,97.30
2018-04-25T00:45:27.475Z,97.60
2018-04-25T00:47:56.769Z,97.70
2018-04-25T00:50:26.070Z,97.90
2018-04-25T00:52:55.393Z,98.00
2018-04-25T00:55:24.714Z,98.20
2018-04-25T00:57:54.794Z,98.30
2018-04-25T01:00:24.263Z,98.40
2018-04-25T01:02:53.750Z,98.40
2018-04-25T01:05:23.252Z,98.20
2018-04-25T01:07:52.726Z,98.10
2018-04-25T01:10:22.350Z,98.00
2018-04-25T01:12:51.849Z,98.30
2018-04-25T01:15:21.278Z,98.20
2018-04-25T01:17:50.811Z,98.30
2018-04-25T01:20:24.602Z,98.40
2018-04-25T01:22:54.877Z,98.50
2018-04-25T01:25:31.578Z,98.70
2018-04-25T01:28:09.954Z,98.60
2018-04-25T01:33:59.643Z,98.50
2018-04-25T01:36:32.612Z,98.50
2018-04-25T01:42:02.616Z,98.20
2018-04-25T01:44:35.330Z,98.20
2018-04-25T01:47:20.367Z,98.30
2018-04-25T01:49:55.507Z,98.50
2018-04-25T01:52:43.260Z,98.50
2018-04-25T01:55:36.147Z,98.50
2018-04-25T01:58:28.959Z,98.40
2018-04-25T02:01:20.518Z,98.30
2018-04-25T02:03:49.503Z,98.50
2018-04-25T02:06:18.591Z,98.50
2018-04-25T02:08:48.136Z,98.50
2018-04-25T02:11:18.343Z,98.30
2018-04-25T02:13:47.791Z,98.30
2018-04-25T02:16:17.866Z,98.50
2018-04-25T02:18:47.441Z,98.40
2018-04-25T02:21:16.860Z,98.30
2018-04-25T02:23:46.367Z,98.30
2018-04-25T02:26:15.732Z,98.10
2018-04-25T02:28:45.067Z,98.00
2018-04-25T02:31:14.445Z,98.10
2018-04-25T02:33:43.920Z,98.10
2018-04-25T02:36:13.563Z,98.10
2018-04-25T02:38:42.912Z,97.80
2018-04-25T02:41:12.684Z,98.10
2018-04-25T02:43:42.115Z,98.10
2018-04-25T02:46:11.859Z,97.90
2018-04-25T02:48:41.414Z,97.60
2018-04-25T02:51:10.940Z,97.50
2018-04-25T02:53:40.375Z,97.20
2018-04-25T02:56:09.854Z,96.90
2018-04-25T02:58:39.377Z,96.70
2018-04-25T03:01:08.869Z,96.40
2018-04-25T03:03:38.345Z,96.40
2018-04-25T03:06:07.633Z,96.30
2018-04-25T03:08:36.939Z,96.00
2018-04-25T03:13:42.266Z,95.80
2018-04-25T03:16:12.335Z,95.50
2018-04-25T03:18:41.630Z,95.50
2018-04-25T03:21:10.918Z,95.50
2018-04-25T03:23:41.100Z,95.50
2018-04-25T03:26:11.217Z,95.50
2018-04-25T03:28:41.377Z,95.30
2018-04-25T03:31:11.626Z,95.30
2018-04-25T03:33:41.186Z,95.10
2018-04-25T03:36:10.477Z,95.10
2018-04-25T03:38:40.581Z,95.00
2018-04-25T03:41:09.914Z,95.00
2018-04-25T03:43:39.171Z,95.30
2018-04-25T03:46:08.569Z,95.20
2018-04-25T03:48:37.856Z,95.20
2018-04-25T03:51:07.164Z,95.30
2018-04-25T03:53:36.468Z,95.40
2018-04-25T03:56:05.825Z,95.50
2018-04-25T03:58:35.136Z,95.40
2018-04-25T04:01:04.646Z,95.40
2018-04-25T04:03:33.954Z,95.40
2018-04-25T04:06:03.290Z,95.70
2018-04-25T04:08:32.915Z,95.90
2018-04-25T04:11:02.985Z,96.00
2018-04-25T04:13:32.470Z,96.00
2018-04-25T04:16:02.612Z,95.80
2018-04-25T04:18:31.983Z,95.80
2018-04-25T04:21:01.378Z,95.80
2018-04-25T04:23:30.706Z,95.70
2018-04-25T04:26:00.015Z,95.60
2018-04-25T04:28:29.351Z,95.50
2018-04-25T04:30:58.815Z,95.40
2018-04-25T04:33:28.560Z,95.20
2018-04-25T04:35:57.984Z,95.00
2018-04-25T04:38:27.371Z,95.10
2018-04-25T04:40:56.683Z,95.00
2018-04-25T04:43:26.819Z,95.10
2018-04-25T04:45:57.275Z,94.70
2018-04-25T04:48:27.369Z,94.70
2018-04-25T04:50:58.511Z,94.30
2018-04-25T04:53:28.951Z,94.30
2018-04-25T04:55:58.278Z,94.50
2018-04-25T04:58:28.435Z,94.20
2018-04-25T05:00:58.769Z,94.10
2018-04-25T05:03:30.398Z,94.00
2018-04-25T05:06:00.559Z,94.00
2018-04-25T05:08:30.640Z,94.00
2018-04-25T05:11:00.583Z,93.90
2018-04-25T05:13:30.015Z,93.90
2018-04-25T05:15:59.958Z,94.20
2018-04-25T05:18:31.593Z,93.70
2018-04-25T05:21:03.279Z,93.70
2018-04-25T05:23:35.200Z,93.70
2018-04-25T05:26:06.276Z,93.40
2018-04-25T05:28:37.113Z,92.80
2018-04-25T05:31:07.782Z,92.40
2018-04-25T05:33:37.927Z,91.70
2018-04-25T05:36:07.341Z,91.70
2018-04-25T05:38:37.781Z,90.80
2018-04-25T05:41:08.010Z,90.20
2018-04-25T05:43:38.293Z,86.70
2018-04-25T05:46:09.535Z,86.70
2018-04-25T05:48:40.544Z,83.90
2018-04-25T05:51:13.768Z,84.90
2018-04-25T05:53:46.929Z,82.90
2018-04-25T05:56:18.783Z,82.80
2018-04-25T05:58:53.811Z,85.10
2018-04-25T06:01:24.838Z,82.10
2018-04-25T06:03:55.847Z,81.70
2018-04-25T06:06:26.302Z,82.50
2018-04-25T06:08:56.802Z,81.60
2018-04-25T06:11:31.753Z,79.40
2018-04-25T06:14:05.867Z,79.80
2018-04-25T06:19:13.195Z,76.80
2018-04-25T06:21:46.658Z,76.80
2018-04-25T06:24:17.841Z,75.80
2018-04-25T06:26:51.047Z,77.60
2018-04-25T06:29:22.138Z,75.40
2018-04-25T06:31:52.846Z,75.40
2018-04-25T06:34:24.940Z,73.70
2018-04-25T06:36:57.715Z,74.60
2018-04-25T06:39:29.680Z,74.60
2018-04-25T06:42:01.889Z,75.80
2018-04-25T06:44:32.401Z,75.50
2018-04-25T06:47:03.012Z,73.40
2018-04-25T06:49:34.501Z,73.20
2018-04-25T06:52:04.792Z,73.90
2018-04-25T06:54:37.702Z,74.30
2018-04-25T06:57:09.923Z,73.50
2018-04-25T06:59:40.578Z,73.40
2018-04-25T07:02:11.496Z,74.30
2018-04-25T07:04:44.265Z,72.80
2018-04-25T07:07:15.242Z,71.60
2018-04-25T07:09:44.815Z,73.10
2018-04-25T07:12:14.408Z,72.40
2018-04-25T07:14:45.527Z,71.40
2018-04-25T07:17:15.151Z,71.80
2018-04-25T07:19:44.846Z,71.40
2018-04-25T07:22:15.751Z,72.50
2018-04-25T07:24:46.031Z,72.70
2018-04-25T07:27:15.675Z,72.10
2018-04-25T07:29:45.067Z,72.70
2018-04-25T07:32:14.628Z,72.80
2018-04-25T07:34:45.925Z,73.00
2018-04-25T07:37:16.757Z,73.10
2018-04-25T07:39:50.159Z,73.40
2018-04-25T07:42:20.860Z,75.40
2018-04-25T07:44:50.734Z,75.50
2018-04-25T07:47:28.841Z,75.40
2018-04-25T07:50:02.372Z,75.50
2018-04-25T07:52:34.586Z,75.60
2018-04-25T07:55:04.735Z,75.90
2018-04-25T07:57:36.876Z,75.70
2018-04-25T08:00:06.958Z,76.30
2018-04-25T08:02:36.287Z,77.20
2018-04-25T08:05:05.643Z,78.20
2018-04-25T08:07:34.933Z,77.30
2018-04-25T08:10:05.249Z,77.50
2018-04-25T08:12:52.382Z,77.40
2018-04-25T08:15:39.991Z,78.30
2018-04-25T08:18:27.516Z,79.50
2018-04-25T08:24:12.864Z,77.40
2018-04-25T08:26:44.936Z,74.00
2018-04-25T08:29:14.672Z,74.10
2018-04-25T08:31:43.983Z,73.90
2018-04-25T08:34:15.090Z,75.50
2018-04-25T08:36:46.109Z,74.10
2018-04-25T08:39:17.079Z,71.40
2018-04-25T08:41:47.731Z,72.00
2018-04-25T08:44:18.422Z,72.30
2018-04-25T08:46:48.053Z,72.30
2018-04-25T08:49:18.194Z,72.70
2018-04-25T08:51:47.569Z,72.70
2018-04-25T08:54:16.885Z,72.90
2018-04-25T08:56:46.474Z,72.00
2018-04-25T08:59:15.887Z,72.50
2018-04-25T09:01:46.163Z,72.00
2018-04-25T09:04:16.309Z,72.90
2018-04-25T09:06:46.557Z,72.60
2018-04-25T09:09:16.966Z,72.00
2018-04-25T09:11:47.018Z,72.00
2018-04-25T09:14:17.093Z,70.60
2018-04-25T09:16:46.387Z,70.50
2018-04-25T09:19:15.676Z,69.40
2018-04-25T09:21:45.785Z,70.00
2018-04-25T09:24:15.275Z,69.30
2018-04-25T09:26:45.188Z,68.50
2018-04-25T09:29:15.384Z,67.90
2018-04-25T09:31:44.711Z,67.90
2018-04-25T09:34:14.192Z,66.70
2018-04-25T09:36:44.011Z,66.60
2018-04-25T09:39:14.767Z,67.60
2018-04-25T09:41:44.387Z,67.60
2018-04-25T09:44:13.894Z,66.40
2018-04-25T09:46:43.477Z,64.30
2018-04-25T09:49:12.949Z,64.10
2018-04-25T09:51:42.688Z,63.50
2018-04-25T09:54:12.117Z,63.20
2018-04-25T09:56:43.692Z,62.10
2018-04-25T09:59:13.142Z,61.40
2018-04-25T10:01:42.439Z,61.60
2018-04-25T10:04:11.753Z,63.20
2018-04-25T10:06:41.158Z,63.30
2018-04-25T10:09:10.591Z,63.20
2018-04-25T10:11:39.899Z,62.30
2018-04-25T10:14:09.199Z,60.00
2018-04-25T10:16:38.576Z,58.40
2018-04-25T10:19:07.921Z,58.50
2018-04-25T10:21:37.236Z,59.10
2018-04-25T10:24:06.562Z,59.10
2018-04-25T10:26:35.845Z,57.00
2018-04-25T10:29:05.146Z,57.20
2018-04-25T10:31:34.494Z,57.30
2018-04-25T10:34:03.838Z,57.10
2018-04-25T10:36:33.225Z,58.00
2018-04-25T10:39:02.634Z,58.00
2018-04-25T10:41:32.217Z,57.80
2018-04-25T10:44:01.509Z,57.40
2018-04-25T10:46:30.826Z,62.80
2018-04-25T10:49:00.131Z,62.90
2018-04-25T10:51:29.421Z,64.00
2018-04-25T10:53:59.078Z,63.30
2018-04-25T10:56:28.418Z,66.20
2018-04-25T10:58:57.715Z,67.70
2018-04-25T11:01:27.003Z,68.60
2018-04-25T11:03:56.301Z,70.50
2018-04-25T11:06:25.602Z,71.20
2018-04-25T11:08:54.911Z,70.10
2018-04-25T11:11:24.206Z,68.90
2018-04-25T11:13:53.515Z,69.20
2018-04-25T11:16:22.816Z,68.50
2018-04-25T11:18:52.194Z,68.60
2018-04-25T11:21:21.486Z,69.90
2018-04-25T11:23:50.810Z,69.10
2018-04-25T11:26:20.101Z,70.20
2018-04-25T11:28:49.427Z,69.10
2018-04-25T11:31:18.778Z,68.70
2018-04-25T11:33:48.841Z,67.00
2018-04-25T11:36:18.140Z,67.00
2018-04-25T11:38:47.426Z,68.50
2018-04-25T11:41:16.746Z,68.80
2018-04-25T11:43:46.022Z,67.50
2018-04-25T11:46:15.324Z,66.20
2018-04-25T11:48:44.610Z,65.70
2018-04-25T11:51:13.921Z,65.30
2018-04-25T11:53:43.216Z,65.00
2018-04-25T11:56:12.499Z,62.70
2018-04-25T11:58:42.570Z,62.10
2018-04-25T12:01:11.858Z,62.20
2018-04-25T12:03:41.170Z,64.80
2018-04-25T12:06:10.462Z,65.40
2018-04-25T12:08:39.871Z,66.80
2018-04-25T12:11:09.167Z,66.90
2018-04-25T12:13:38.530Z,65.60
2018-04-25T12:16:08.616Z,66.10
2018-04-25T12:18:37.915Z,66.10
2018-04-25T12:21:07.275Z,65.60
2018-04-25T12:23:36.778Z,65.60
2018-04-25T12:26:06.122Z,64.60
2018-04-25T12:28:35.397Z,64.20
2018-04-25T12:31:04.727Z,64.80
2018-04-25T12:33:34.010Z,64.60
2018-04-25T12:36:03.375Z,64.70
2018-04-25T12:38:32.718Z,64.00
2018-04-25T12:41:02.038Z,63.80
2018-04-25T12:43:31.365Z,63.60
2018-04-25T12:46:01.477Z,64.70
2018-04-25T12:48:30.791Z,64.60
2018-04-25T12:51:00.088Z,64.60
2018-04-25T12:53:29.385Z,63.90
2018-04-25T12:55:59.455Z,64.00
2018-04-25T12:58:28.751Z,63.90
2018-04-25T13:00:58.081Z,64.40
2018-04-25T13:03:27.630Z,66.00
2018-04-25T13:05:56.933Z,66.30
2018-04-25T13:08:27.025Z,66.70
2018-04-25T13:10:57.088Z,67.40
2018-04-25T13:13:26.370Z,67.40
2018-04-25T13:15:55.708Z,68.70
2018-04-25T13:18:25.006Z,70.10
2018-04-25T13:20:54.290Z,70.60
2018-04-25T13:23:23.633Z,69.10
2018-04-25T13:25:52.925Z,68.90
2018-04-25T13:28:22.246Z,69.10
2018-04-25T13:30:51.541Z,69.50
2018-04-25T13:33:20.851Z,70.70
2018-04-25T13:35:50.905Z,70.80
2018-04-25T13:38:20.213Z,70.80
2018-04-25T13:40:49.497Z,70.50
2018-04-25T13:43:18.820Z,70.70
2018-04-25T13:45:48.091Z,71.50
2018-04-25T13:48:17.423Z,70.90
2018-04-25T13:50:46.718Z,71.30
2018-04-25T13:53:16.820Z,71.20
2018-04-25T13:55:46.945Z,70.30
2018-04-25T13:58:17.134Z,70.30
2018-04-25T14:00:46.500Z,70.60
2018-04-25T14:03:15.772Z,70.00
2018-04-25T14:05:45.055Z,70.50
2018-04-25T14:08:14.343Z,70.60
2018-04-25T14:10:43.684Z,70.10
2018-04-25T14:13:12.972Z,68.20
2018-04-25T14:15:42.269Z,67.60
2018-04-25T14:18:11.579Z,68.10
2018-04-25T14:20:41.151Z,67.70
2018-04-25T14:23:10.707Z,68.00
2018-04-25T14:25:40.018Z,68.10
2018-04-25T14:28:09.331Z,68.10
2018-04-25T14:30:38.647Z,66.70
2018-04-25T14:33:07.933Z,67.10
2018-04-25T14:35:37.289Z,67.20
2018-04-25T14:38:06.562Z,66.00
2018-04-25T14:40:36.625Z,66.00
2018-04-25T14:43:05.933Z,65.80
2018-04-25T14:45:35.231Z,66.20
2018-04-25T14:48:04.503Z,66.20
2018-04-25T14:50:33.821Z,66.70
2018-04-25T14:53:03.136Z,66.00
2018-04-25T14:55:32.409Z,65.80
2018-04-25T14:58:01.705Z,65.30
2018-04-25T15:00:31.005Z,66.40
2018-04-25T15:03:00.288Z,66.20
2018-04-25T15:05:30.367Z,67.30
2018-04-25T15:07:59.653Z,67.30
2018-04-25T15:10:28.936Z,68.00
2018-04-25T15:12:58.233Z,69.90
2018-04-25T15:15:27.520Z,69.10
2018-04-25T15:17:56.820Z,69.50
2018-04-25T15:20:26.121Z,70.60
2018-04-25T15:22:56.210Z,70.70
2018-04-25T15:25:26.330Z,71.70
2018-04-25T15:27:55.606Z,71.70
2018-04-25T15:30:24.897Z,71.40
2018-04-25T15:32:54.187Z,71.70
2018-04-25T15:35:23.501Z,72.40
2018-04-25T15:37:52.879Z,74.00
2018-04-25T15:40:22.089Z,74.30
2018-04-25T15:42:51.406Z,75.30
2018-04-25T15:45:20.687Z,76.30
2018-04-25T15:47:50.049Z,76.90
2018-04-25T15:50:19.333Z,77.20
2018-04-25T15:52:48.736Z,76.70
2018-04-25T15:55:19.544Z,78.20
2018-04-25T15:57:48.832Z,77.50
2018-04-25T16:00:18.120Z,78.10
2018-04-25T16:02:47.416Z,77.50
2018-04-25T16:05:16.702Z,77.60
2018-04-25T16:07:46.164Z,78.70
2018-04-25T16:10:15.467Z,79.20
2018-04-25T16:12:45.822Z,78.80
2018-04-25T16:15:15.919Z,78.60
2018-04-25T16:17:45.242Z,78.60
2018-04-25T16:20:15.513Z,80.20
2018-04-25T16:22:44.879Z,80.10
2018-04-25T16:25:14.144Z,80.20
2018-04-25T16:27:43.685Z,80.30
2018-04-25T16:30:13.021Z,80.50
2018-04-25T16:32:42.308Z,80.80
2018-04-25T16:35:11.590Z,81.70
2018-04-25T16:37:40.999Z,82.10
2018-04-25T16:40:10.233Z,82.50
2018-04-25T16:42:39.528Z,82.00
2018-04-25T16:45:08.821Z,82.70
2018-04-25T16:47:38.108Z,83.00
2018-04-25T16:50:07.393Z,82.70
2018-04-25T16:52:36.710Z,83.10
2018-04-25T16:55:05.998Z,83.70
2018-04-25T16:57:35.314Z,84.10
2018-04-25T17:00:04.615Z,84.00
2018-04-25T17:02:33.919Z,84.70
2018-04-25T17:05:03.984Z,84.60
2018-04-25T17:07:34.040Z,84.30
2018-04-25T17:10:03.421Z,84.30
2018-04-25T17:12:32.713Z,84.60
2018-04-25T17:15:02.744Z,85.20
2018-04-25T17:17:32.063Z,85.20
2018-04-25T17:20:01.510Z,85.50
2018-04-25T17:22:30.931Z,85.70
2018-04-25T17:25:01.002Z,85.60
2018-04-25T17:27:30.353Z,85.60
2018-04-25T17:30:00.172Z,85.80
2018-04-25T17:32:29.901Z,84.80
2018-04-25T17:35:04.076Z,84.80
2018-04-25T17:37:38.080Z,85.20
2018-04-25T17:40:11.048Z,84.60
2018-04-25T17:42:40.335Z,83.80
2018-04-25T17:45:09.622Z,84.30
2018-04-25T17:47:38.910Z,83.90
2018-04-25T17:50:08.421Z,84.20
2018-04-25T17:52:37.725Z,84.20
2018-04-25T17:55:07.043Z,84.20
2018-04-25T17:57:36.444Z,84.70
2018-04-25T18:00:05.669Z,84.80
2018-04-25T18:02:34.966Z,85.30
2018-04-25T18:05:04.250Z,85.50
2018-04-25T18:07:33.554Z,85.50
2018-04-25T18:10:02.898Z,84.70
2018-04-25T18:12:32.953Z,85.20
2018-04-25T18:15:02.256Z,85.20
2018-04-25T18:17:31.563Z,85.20
2018-04-25T18:20:00.953Z,85.30
2018-04-25T18:22:30.271Z,85.40
2018-04-25T18:24:59.586Z,85.00
2018-04-25T18:27:29.048Z,85.20
2018-04-25T18:29:59.185Z,86.10
2018-04-25T18:32:28.527Z,85.90
2018-04-25T18:34:57.818Z,86.10
2018-04-25T18:37:27.183Z,86.40
2018-04-25T18:39:56.429Z,86.70
2018-04-25T18:42:25.785Z,86.50
2018-04-25T18:44:55.148Z,86.70
2018-04-25T18:47:25.412Z,87.00
2018-04-25T18:49:54.731Z,87.40
2018-04-25T18:52:24.052Z,87.40
2018-04-25T18:54:53.394Z,87.80
2018-04-25T18:57:23.457Z,87.90
2018-04-25T18:59:52.964Z,87.70
2018-04-25T19:02:22.519Z,87.80
2018-04-25T19:04:51.846Z,88.30
2018-04-25T19:07:21.220Z,88.10
2018-04-25T19:09:51.568Z,88.60
2018-04-25T19:12:20.898Z,88.50
2018-04-25T19:14:50.247Z,89.00
2018-04-25T19:17:20.310Z,89.30
2018-04-25T19:19:49.698Z,89.30
2018-04-25T19:22:19.017Z,89.70
2018-04-25T19:24:48.418Z,89.80
2018-04-25T19:27:17.771Z,90.00
2018-04-25T19:29:48.090Z,90.40
2018-04-25T19:32:17.446Z,90.30
2018-04-25T19:34:46.876Z,90.40
2018-04-25T19:37:16.197Z,90.50
2018-04-25T19:39:45.540Z,90.60
2018-04-25T19:42:14.896Z,90.70
2018-04-25T19:44:44.178Z,90.80
2018-04-25T19:47:13.501Z,90.90
2018-04-25T19:49:42.789Z,90.70
2018-04-25T19:52:12.158Z,90.70
2018-04-25T19:54:41.486Z,90.70
2018-04-25T19:57:10.811Z,90.30
2018-04-25T19:59:40.216Z,90.30
2018-04-25T20:02:09.512Z,90.20
2018-04-25T20:04:39.642Z,90.00
2018-04-25T20:07:09.834Z,90.00
2018-04-25T20:09:39.349Z,89.90
2018-04-25T20:12:09.002Z,90.00
2018-04-25T20:14:39.472Z,89.50
2018-04-25T20:17:08.845Z,89.90
2018-04-25T20:19:38.175Z,89.90
2018-04-25T20:22:07.720Z,90.00
2018-04-25T20:24:37.910Z,90.00
2018-04-25T20:27:07.299Z,89.70
2018-04-25T20:29:37.062Z,89.90
2018-04-25T20:32:06.446Z,89.30
2018-04-25T20:34:36.499Z,90.10
2018-04-25T20:37:05.781Z,90.00
2018-04-25T20:39:35.091Z,90.20
2018-04-25T20:42:04.394Z,90.40
2018-04-25T20:44:33.727Z,90.50
2018-04-25T20:47:03.123Z,90.90
2018-04-25T20:49:33.159Z,91.50
2018-04-25T20:52:02.461Z,91.20
2018-04-25T20:54:32.083Z,91.30
2018-04-25T20:57:01.462Z,91.60
2018-04-25T20:59:30.749Z,91.50
2018-04-25T21:02:00.067Z,90.90
2018-04-25T21:04:29.378Z,90.90
2018-04-25T21:06:58.726Z,91.20
2018-04-25T21:09:28.075Z,91.50
2018-04-25T21:11:57.381Z,91.70
2018-04-25T21:14:26.697Z,91.80
2018-04-25T21:16:56.019Z,91.90
2018-04-25T21:19:26.146Z,92.10
2018-04-25T21:21:55.489Z,92.10
2018-04-25T21:24:24.803Z,91.90
2018-04-25T21:26:54.162Z,92.00
2018-04-25T21:29:23.508Z,92.10
2018-04-25T21:31:52.848Z,92.20
2018-04-25T21:34:22.299Z,92.30
2018-04-25T21:36:52.437Z,92.70
2018-04-25T21:39:21.745Z,92.60
2018-04-25T21:41:51.056Z,92.70
2018-04-25T21:44:21.219Z,92.60
2018-04-25T21:46:50.549Z,92.50
2018-04-25T21:49:19.849Z,92.40
2018-04-25T21:51:49.143Z,92.30
2018-04-25T21:54:18.434Z,92.30
2018-04-25T21:56:47.783Z,92.30
2018-04-25T21:59:17.898Z,92.20
2018-04-25T22:01:47.732Z,92.20
2018-04-25T22:04:17.017Z,92.30
2018-04-25T22:06:47.100Z,92.60
2018-04-25T22:09:16.381Z,92.60
2018-04-25T22:11:45.708Z,92.70
2018-04-25T22:14:15.031Z,94.10
2018-04-25T22:16:44.356Z,95.80
2018-04-25T22:19:14.433Z,99.30
2018-04-25T22:21:43.860Z,99.30
2018-04-25T22:24:13.093Z,99.70
2018-04-25T22:26:42.437Z,99.90
2018-04-25T22:29:11.772Z,99.90
2018-04-25T22:31:41.103Z,99.90
2018-04-25T22:34:10.405Z,99.90
2018-04-25T22:36:39.706Z,99.90
2018-04-25T22:39:08.987Z,99.90
2018-04-25T22:41:38.293Z,99.90
2018-04-25T22:44:07.643Z,99.90
2018-04-25T22:46:36.951Z,99.90
2018-04-25T22:49:06.266Z,99.90
2018-04-25T22:51:35.563Z,99.90
2018-04-25T22:54:05.653Z,99.90
2018-04-25T22:56:34.970Z,99.90
2018-04-25T22:59:04.255Z,99.90
2018-04-25T23:01:33.553Z,99.90
2018-04-25T23:04:02.858Z,99.90
2018-04-25T23:06:32.177Z,99.90
2018-04-25T23:09:01.488Z,99.90
2018-04-25T23:11:31.559Z,99.90
2018-04-25T23:14:00.936Z,99.90
2018-04-25T23:16:30.240Z,99.90
2018-04-25T23:18:59.529Z,99.90
2018-04-25T23:21:28.827Z,99.90
2018-04-25T23:23:58.134Z,99.90
2018-04-25T23:26:27.428Z,99.90
2018-04-25T23:28:56.713Z,99.90
2018-04-25T23:31:27.032Z,99.90
2018-04-25T23:33:56.336Z,99.90
2018-04-25T23:36:26.991Z,99.90
2018-04-25T23:38:56.292Z,99.90
2018-04-25T23:41:25.599Z,99.90
2018-04-25T23:43:54.884Z,99.90
2018-04-25T23:46:24.191Z,99.90
2018-04-25T23:48:53.507Z,99.90
2018-04-25T23:51:22.792Z,99.90
2018-04-25T23:53:52.087Z,99.90
2018-04-25T23:56:21.381Z,99.90
2018-04-25T23:58:50.701Z,99.90
